createdAt,value
2022-12-29T00:02:19.745Z,23.80
2022-12-29T00:05:14.407Z,23.90
2022-12-29T00:08:08.744Z,24.00
2022-12-29T00:11:03.125Z,24.00
2022-12-29T00:14:15.804Z,24.00
2022-12-29T00:17:10.731Z,24.00
2022-12-29T00:20:23.212Z,24.10
2022-12-29T00:23:35.630Z,24.30
2022-12-29T00:26:48.230Z,24.40
2022-12-29T00:30:00.765Z,24.50
2022-12-29T00:33:13.196Z,24.40
2022-12-29T00:36:28.472Z,24.50
2022-12-29T00:39:41.103Z,24.50
2022-12-29T00:42:53.553Z,24.50
2022-12-29T00:45:48.078Z,24.60
2022-12-29T00:49:00.795Z,24.70
2022-12-29T00:51:56.421Z,24.80
2022-12-29T00:54:50.895Z,24.90
2022-12-29T00:57:45.183Z,24.90
2022-12-29T01:00:39.758Z,25.00
2022-12-29T01:03:35.020Z,25.10
2022-12-29T01:06:29.574Z,25.20
2022-12-29T01:09:42.663Z,25.10
2022-12-29T01:12:43.128Z,25.20
2022-12-29T01:15:37.340Z,25.30
2022-12-29T01:18:31.759Z,25.20
2022-12-29T01:21:26.247Z,25.20
2022-12-29T01:24:22.136Z,25.20
2022-12-29T01:27:16.353Z,25.40
2022-12-29T01:30:11.234Z,25.50
2022-12-29T01:33:05.600Z,25.80
2022-12-29T01:36:04.393Z,25.80
2022-12-29T01:38:58.913Z,25.80
2022-12-29T01:41:53.350Z,25.80
2022-12-29T01:44:56.928Z,26.00
2022-12-29T01:47:56.109Z,26.10
2022-12-29T01:50:55.848Z,26.10
2022-12-29T01:53:50.421Z,26.10
2022-12-29T01:56:45.315Z,26.20
2022-12-29T01:59:44.191Z,26.40
2022-12-29T02:02:39.235Z,26.50
2022-12-29T02:05:51.924Z,26.50
2022-12-29T02:08:48.744Z,26.60
2022-12-29T02:11:43.604Z,26.60
2022-12-29T02:14:38.319Z,26.70
2022-12-29T02:18:00.792Z,26.80
2022-12-29T02:20:55.135Z,26.90
2022-12-29T02:24:10.120Z,26.90
2022-12-29T02:27:14.906Z,27.00
2022-12-29T02:30:17.401Z,27.10
2022-12-29T02:33:34.255Z,27.20
2022-12-29T02:36:47.016Z,27.30
2022-12-29T02:39:58.670Z,27.30
2022-12-29T02:43:21.607Z,27.20
2022-12-29T02:46:33.816Z,27.20
2022-12-29T02:50:03.529Z,27.40
2022-12-29T02:53:44.410Z,27.50
2022-12-29T02:56:38.757Z,27.60
2022-12-29T02:59:33.189Z,27.70
2022-12-29T03:02:51.797Z,27.70
2022-12-29T03:06:09.753Z,27.80
2022-12-29T03:09:19.050Z,27.90
2022-12-29T03:12:53.100Z,27.90
2022-12-29T03:16:26.267Z,27.70
2022-12-29T03:19:34.868Z,27.80
2022-12-29T03:22:34.196Z,27.90
2022-12-29T03:25:58.414Z,28.00
2022-12-29T03:28:55.961Z,28.10
2022-12-29T03:31:53.542Z,28.10
2022-12-29T03:34:49.145Z,28.20
2022-12-29T03:37:52.533Z,28.20
2022-12-29T03:40:54.815Z,28.20
2022-12-29T03:43:49.447Z,28.10
2022-12-29T03:46:44.044Z,28.20
2022-12-29T03:49:38.492Z,28.20
2022-12-29T03:52:32.812Z,28.20
2022-12-29T03:55:27.130Z,28.20
2022-12-29T03:58:21.458Z,28.30
2022-12-29T04:01:15.832Z,28.30
2022-12-29T04:04:12.851Z,28.20
2022-12-29T04:07:07.165Z,28.20
2022-12-29T04:10:02.196Z,28.20
2022-12-29T04:12:56.536Z,28.30
2022-12-29T04:15:51.070Z,28.30
2022-12-29T04:18:45.375Z,28.30
2022-12-29T04:21:39.789Z,28.40
2022-12-29T04:24:34.105Z,28.50
2022-12-29T04:27:28.470Z,28.60
2022-12-29T04:30:22.841Z,28.70
2022-12-29T04:33:17.318Z,28.80
2022-12-29T04:36:13.593Z,28.90
2022-12-29T04:39:08.488Z,28.80
2022-12-29T04:42:02.857Z,28.80
2022-12-29T04:44:57.293Z,28.80
2022-12-29T04:47:51.624Z,28.60
2022-12-29T04:50:46.548Z,28.50
2022-12-29T04:53:40.953Z,28.40
2022-12-29T04:56:35.330Z,28.50
2022-12-29T04:59:29.730Z,28.60
2022-12-29T05:02:24.272Z,28.60
2022-12-29T05:05:18.770Z,28.60
2022-12-29T05:08:13.320Z,28.80
2022-12-29T05:11:08.130Z,28.90
2022-12-29T05:14:02.504Z,28.90
2022-12-29T05:17:52.227Z,29.00
2022-12-29T05:20:46.846Z,28.90
2022-12-29T05:23:41.229Z,28.90
2022-12-29T05:26:35.769Z,29.00
2022-12-29T05:29:30.112Z,29.10
2022-12-29T05:32:24.501Z,29.00
2022-12-29T05:35:18.841Z,28.90
2022-12-29T05:38:13.313Z,29.00
2022-12-29T05:41:07.774Z,29.00
2022-12-29T05:44:02.829Z,29.20
2022-12-29T05:46:57.380Z,29.20
2022-12-29T05:49:51.840Z,29.20
2022-12-29T05:52:46.250Z,29.20
2022-12-29T05:55:46.580Z,29.10
2022-12-29T05:58:42.707Z,29.00
2022-12-29T06:01:37.171Z,28.90
2022-12-29T06:04:31.667Z,28.80
2022-12-29T06:07:25.929Z,28.80
2022-12-29T06:10:20.597Z,28.90
2022-12-29T06:13:14.965Z,28.80
2022-12-29T06:16:11.870Z,28.90
2022-12-29T06:19:06.320Z,28.90
2022-12-29T06:22:00.652Z,28.70
2022-12-29T06:24:57.851Z,28.60
2022-12-29T06:27:54.392Z,28.50
2022-12-29T06:30:50.181Z,28.40
2022-12-29T06:33:48.255Z,28.60
2022-12-29T06:36:44.119Z,28.70
2022-12-29T06:39:38.519Z,28.90
2022-12-29T06:42:32.875Z,28.90
2022-12-29T06:45:27.477Z,28.90
2022-12-29T06:48:22.005Z,28.80
2022-12-29T06:51:16.245Z,28.60
2022-12-29T06:54:11.956Z,28.50
2022-12-29T06:57:06.264Z,28.40
2022-12-29T07:00:00.655Z,28.30
2022-12-29T07:02:57.254Z,28.10
2022-12-29T07:05:51.806Z,28.10
2022-12-29T07:08:46.077Z,28.10
2022-12-29T07:11:40.373Z,28.00
2022-12-29T07:14:40.750Z,28.00
2022-12-29T07:17:37.277Z,27.90
2022-12-29T07:20:31.670Z,27.80
2022-12-29T07:23:26.211Z,27.80
2022-12-29T07:26:20.545Z,27.70
2022-12-29T07:29:14.900Z,27.70
2022-12-29T07:32:09.309Z,27.70
2022-12-29T07:35:04.106Z,27.70
2022-12-29T07:37:58.454Z,27.60
2022-12-29T07:40:52.961Z,27.60
2022-12-29T07:43:51.133Z,27.60
2022-12-29T07:46:56.195Z,27.50
2022-12-29T07:49:52.706Z,27.50
2022-12-29T07:52:49.309Z,27.50
2022-12-29T07:55:43.729Z,27.50
2022-12-29T07:58:38.226Z,27.40
2022-12-29T08:01:32.770Z,27.40
2022-12-29T08:04:27.283Z,27.40
2022-12-29T08:07:22.370Z,27.30
2022-12-29T08:10:17.788Z,27.30
2022-12-29T08:13:12.303Z,27.10
2022-12-29T08:16:07.564Z,27.10
2022-12-29T08:19:01.864Z,27.00
2022-12-29T08:21:56.809Z,26.90
2022-12-29T08:24:51.180Z,26.80
2022-12-29T08:27:45.565Z,26.80
2022-12-29T08:30:39.817Z,26.70
2022-12-29T08:33:34.126Z,26.60
2022-12-29T08:36:28.636Z,26.50
2022-12-29T08:39:22.961Z,26.40
2022-12-29T08:42:17.601Z,26.40
2022-12-29T08:45:12.527Z,26.30
2022-12-29T08:48:07.136Z,26.30
2022-12-29T08:51:01.594Z,26.10
2022-12-29T08:53:56.029Z,25.90
2022-12-29T08:56:50.379Z,25.70
2022-12-29T08:59:44.866Z,25.60
2022-12-29T09:02:39.617Z,25.60
2022-12-29T09:05:34.065Z,25.50
2022-12-29T09:08:28.707Z,25.50
2022-12-29T09:11:25.515Z,25.50
2022-12-29T09:14:19.898Z,25.50
2022-12-29T09:17:32.643Z,25.30
2022-12-29T09:20:27.051Z,25.20
2022-12-29T09:23:21.298Z,25.20
2022-12-29T09:26:15.668Z,25.00
2022-12-29T09:29:09.960Z,24.90
2022-12-29T09:32:07.597Z,24.90
2022-12-29T09:35:02.214Z,24.80
2022-12-29T09:37:56.495Z,24.80
2022-12-29T09:41:00.069Z,24.70
2022-12-29T09:44:02.808Z,24.50
2022-12-29T09:46:59.347Z,24.40
2022-12-29T09:50:06.529Z,24.30
2022-12-29T09:53:13.828Z,24.20
2022-12-29T09:56:13.863Z,24.20
2022-12-29T09:59:33.152Z,24.20
2022-12-29T10:02:42.763Z,24.10
2022-12-29T10:05:49.689Z,24.00
2022-12-29T10:09:27.344Z,23.90
2022-12-29T10:12:33.118Z,23.90
2022-12-29T10:15:45.935Z,23.70
2022-12-29T10:18:48.143Z,23.50
2022-12-29T10:21:54.793Z,23.40
2022-12-29T10:24:53.916Z,23.30
2022-12-29T10:27:51.965Z,23.20
2022-12-29T10:30:48.795Z,23.10
2022-12-29T10:33:45.066Z,23.10
2022-12-29T10:36:49.684Z,23.00
2022-12-29T10:39:48.786Z,22.80
2022-12-29T10:42:52.237Z,22.60
2022-12-29T10:45:47.255Z,22.40
2022-12-29T10:48:41.628Z,22.30
2022-12-29T10:51:41.167Z,22.20
2022-12-29T10:55:04.860Z,22.10
2022-12-29T10:58:06.977Z,22.10
2022-12-29T11:01:01.865Z,21.90
2022-12-29T11:04:08.138Z,21.90
2022-12-29T11:07:03.616Z,21.90
2022-12-29T11:09:58.305Z,21.90
2022-12-29T11:13:20.300Z,21.80
2022-12-29T11:16:15.225Z,21.80
2022-12-29T11:19:22.071Z,21.70
2022-12-29T11:22:31.430Z,21.70
2022-12-29T11:25:25.932Z,21.60
2022-12-29T11:28:20.572Z,21.60
2022-12-29T11:31:19.631Z,21.50
2022-12-29T11:34:27.475Z,21.40
2022-12-29T11:37:22.692Z,21.50
2022-12-29T11:40:22.704Z,21.50
2022-12-29T11:43:30.178Z,21.60
2022-12-29T11:46:29.212Z,21.60
2022-12-29T11:49:26.547Z,21.70
2022-12-29T11:52:28.634Z,21.70
2022-12-29T11:55:26.981Z,21.70
2022-12-29T11:58:21.363Z,21.70
2022-12-29T12:01:37.883Z,21.60
2022-12-29T12:04:40.637Z,21.60
2022-12-29T12:07:52.125Z,21.60
2022-12-29T12:11:24.491Z,21.60
2022-12-29T12:14:49.327Z,21.70
2022-12-29T12:17:55.393Z,21.60
2022-12-29T12:20:56.099Z,21.60
2022-12-29T12:24:20.655Z,21.50
2022-12-29T12:27:38.434Z,21.50
2022-12-29T12:30:41.566Z,21.60
2022-12-29T12:33:45.530Z,21.60
2022-12-29T12:37:24.020Z,21.60
2022-12-29T12:40:40.553Z,21.60
2022-12-29T12:43:56.018Z,21.60
2022-12-29T12:47:27.784Z,21.50
2022-12-29T12:50:28.500Z,21.50
2022-12-29T12:53:46.596Z,21.40
2022-12-29T12:56:50.279Z,21.40
2022-12-29T12:59:55.402Z,21.40
2022-12-29T13:03:28.685Z,21.40
2022-12-29T13:06:53.716Z,21.40
2022-12-29T13:09:53.841Z,21.40
2022-12-29T13:13:09.322Z,21.30
2022-12-29T13:16:28.211Z,21.30
2022-12-29T13:19:33.867Z,21.30
2022-12-29T13:22:40.647Z,21.20
2022-12-29T13:25:39.205Z,21.20
2022-12-29T13:28:58.337Z,21.10
2022-12-29T13:32:07.925Z,21.10
2022-12-29T13:35:25.630Z,21.10
2022-12-29T13:39:14.775Z,21.10
2022-12-29T13:42:14.116Z,21.00
2022-12-29T13:45:23.418Z,21.00
2022-12-29T13:48:25.875Z,21.00
2022-12-29T13:51:27.451Z,21.00
2022-12-29T13:55:06.732Z,21.00
2022-12-29T13:58:30.597Z,21.00
2022-12-29T14:01:41.956Z,21.00
2022-12-29T14:04:37.330Z,21.00
2022-12-29T14:07:39.245Z,21.00
2022-12-29T14:10:51.959Z,20.90
2022-12-29T14:13:49.041Z,20.90
2022-12-29T14:16:45.109Z,20.90
2022-12-29T14:19:46.034Z,20.90
2022-12-29T14:23:02.682Z,20.90
2022-12-29T14:26:09.160Z,20.80
2022-12-29T14:29:41.935Z,20.70
2022-12-29T14:32:36.249Z,20.70
2022-12-29T14:35:51.633Z,20.60
2022-12-29T14:38:50.530Z,20.60
2022-12-29T14:41:44.856Z,20.50
2022-12-29T14:45:25.670Z,20.50
2022-12-29T14:48:35.230Z,20.50
2022-12-29T14:51:39.021Z,20.50
2022-12-29T14:54:42.384Z,20.40
2022-12-29T14:57:43.533Z,20.30
2022-12-29T15:00:39.454Z,20.30
2022-12-29T15:03:40.974Z,20.30
2022-12-29T15:06:41.905Z,20.30
2022-12-29T15:09:45.978Z,20.30
2022-12-29T15:12:53.941Z,20.30
2022-12-29T15:15:48.259Z,20.30
2022-12-29T15:18:44.857Z,20.30
2022-12-29T15:21:39.694Z,20.20
2022-12-29T15:24:40.942Z,20.30
2022-12-29T15:27:37.635Z,20.20
2022-12-29T15:30:32.065Z,20.20
2022-12-29T15:33:30.241Z,20.20
2022-12-29T15:36:27.300Z,20.20
2022-12-29T15:39:22.311Z,20.20
2022-12-29T15:42:28.652Z,20.20
2022-12-29T15:45:23.891Z,20.20
2022-12-29T15:48:25.329Z,20.20
2022-12-29T15:51:31.232Z,20.20
2022-12-29T15:54:34.306Z,20.20
2022-12-29T15:57:31.414Z,20.20
2022-12-29T16:00:36.999Z,20.10
2022-12-29T16:03:36.183Z,20.10
2022-12-29T16:06:46.413Z,20.10
2022-12-29T16:09:47.635Z,20.10
2022-12-29T16:12:41.923Z,20.10
2022-12-29T16:15:36.493Z,20.10
2022-12-29T16:18:41.595Z,20.00
2022-12-29T16:21:38.413Z,20.00
2022-12-29T16:24:35.383Z,20.00
2022-12-29T16:27:40.467Z,20.00
2022-12-29T16:30:36.858Z,20.00
2022-12-29T16:33:52.901Z,19.90
2022-12-29T16:37:36.552Z,19.90
2022-12-29T16:40:33.102Z,19.90
2022-12-29T16:43:33.829Z,19.80
2022-12-29T16:46:33.131Z,19.80
2022-12-29T16:49:28.801Z,19.80
2022-12-29T16:52:35.650Z,19.80
2022-12-29T16:55:30.141Z,19.80
2022-12-29T16:58:31.472Z,19.80
2022-12-29T17:01:26.654Z,19.60
2022-12-29T17:04:21.052Z,19.60
2022-12-29T17:07:20.455Z,19.50
2022-12-29T17:10:17.966Z,19.50
2022-12-29T17:13:12.487Z,19.50
2022-12-29T17:16:09.723Z,19.60
2022-12-29T17:19:04.169Z,19.60
2022-12-29T17:21:58.618Z,19.60
2022-12-29T17:24:53.550Z,19.60
2022-12-29T17:28:03.282Z,19.50
2022-12-29T17:31:08.901Z,19.50
2022-12-29T17:34:03.689Z,19.50
2022-12-29T17:36:57.889Z,19.40
2022-12-29T17:39:52.578Z,19.50
2022-12-29T17:42:49.792Z,19.50
2022-12-29T17:45:45.510Z,19.40
2022-12-29T17:48:39.783Z,19.40
2022-12-29T17:51:34.508Z,19.30
2022-12-29T17:54:29.061Z,19.30
2022-12-29T17:57:24.071Z,19.30
2022-12-29T18:00:24.660Z,19.30
2022-12-29T18:03:21.241Z,19.30
2022-12-29T18:06:16.036Z,19.30
2022-12-29T18:09:12.144Z,19.30
2022-12-29T18:12:06.985Z,19.30
2022-12-29T18:15:01.705Z,19.20
2022-12-29T18:18:03.640Z,19.20
2022-12-29T18:21:01.231Z,19.20
2022-12-29T18:23:55.512Z,19.20
2022-12-29T18:26:49.928Z,19.10
2022-12-29T18:29:44.394Z,19.10
2022-12-29T18:32:38.787Z,19.20
2022-12-29T18:35:59.036Z,19.10
2022-12-29T18:38:55.239Z,19.10
2022-12-29T18:41:49.544Z,19.10
2022-12-29T18:44:43.895Z,19.00
2022-12-29T18:47:38.693Z,19.00
2022-12-29T18:50:33.335Z,19.00
2022-12-29T18:53:27.939Z,18.90
2022-12-29T18:56:23.971Z,18.90
2022-12-29T18:59:18.248Z,18.80
2022-12-29T19:02:19.070Z,18.80
2022-12-29T19:05:26.334Z,18.80
2022-12-29T19:08:21.271Z,18.80
2022-12-29T19:11:15.737Z,18.80
2022-12-29T19:14:18.435Z,18.70
2022-12-29T19:17:14.641Z,18.70
2022-12-29T19:20:09.665Z,18.70
2022-12-29T19:23:07.486Z,18.70
2022-12-29T19:26:01.911Z,18.70
2022-12-29T19:28:56.439Z,18.70
2022-12-29T19:31:50.772Z,18.70
2022-12-29T19:34:45.180Z,18.70
2022-12-29T19:37:41.617Z,18.70
2022-12-29T19:40:36.223Z,18.70
2022-12-29T19:43:30.600Z,18.60
2022-12-29T19:46:25.876Z,18.60
2022-12-29T19:49:20.385Z,18.60
2022-12-29T19:52:14.757Z,18.60
2022-12-29T19:55:10.463Z,18.60
2022-12-29T19:58:04.810Z,18.60
2022-12-29T20:01:12.935Z,18.60
2022-12-29T20:04:07.368Z,18.60
2022-12-29T20:07:01.993Z,18.60
2022-12-29T20:09:56.490Z,18.60
2022-12-29T20:12:50.884Z,18.60
2022-12-29T20:15:46.517Z,18.60
2022-12-29T20:18:41.342Z,18.60
2022-12-29T20:21:35.784Z,18.60
2022-12-29T20:24:31.084Z,18.60
2022-12-29T20:27:25.453Z,18.60
2022-12-29T20:30:20.622Z,18.70
2022-12-29T20:33:15.176Z,18.60
2022-12-29T20:36:16.793Z,18.70
2022-12-29T20:39:14.365Z,18.70
2022-12-29T20:42:09.047Z,18.70
2022-12-29T20:45:03.387Z,18.70
2022-12-29T20:47:57.760Z,18.70
2022-12-29T20:50:52.245Z,18.80
2022-12-29T20:53:47.909Z,18.90
2022-12-29T20:56:42.484Z,18.90
2022-12-29T20:59:37.111Z,18.90
2022-12-29T21:02:31.600Z,18.90
2022-12-29T21:05:26.273Z,18.90
2022-12-29T21:08:22.396Z,19.00
2022-12-29T21:11:16.817Z,19.00
2022-12-29T21:14:11.223Z,19.00
2022-12-29T21:17:06.117Z,19.00
2022-12-29T21:20:00.661Z,19.10
2022-12-29T21:22:55.276Z,19.10
2022-12-29T21:25:50.714Z,19.10
2022-12-29T21:28:45.778Z,19.20
2022-12-29T21:31:40.188Z,19.20
2022-12-29T21:34:35.720Z,19.20
2022-12-29T21:37:30.054Z,19.30
2022-12-29T21:40:24.480Z,19.40
2022-12-29T21:43:18.841Z,19.50
2022-12-29T21:46:13.340Z,19.60
2022-12-29T21:49:08.395Z,19.70
2022-12-29T21:52:02.887Z,19.70
2022-12-29T21:55:02.916Z,19.80
2022-12-29T21:58:15.697Z,19.90
2022-12-29T22:01:31.439Z,20.10
2022-12-29T22:04:45.761Z,20.20
2022-12-29T22:07:58.557Z,20.50
2022-12-29T22:11:11.177Z,20.80
2022-12-29T22:14:05.595Z,21.40
2022-12-29T22:17:00.128Z,21.90
2022-12-29T22:19:54.397Z,22.40
2022-12-29T22:22:49.372Z,22.90
2022-12-29T22:25:45.878Z,23.20
2022-12-29T22:28:41.941Z,23.70
2022-12-29T22:31:36.572Z,24.10
2022-12-29T22:34:31.140Z,24.40
2022-12-29T22:37:25.483Z,24.70
2022-12-29T22:40:19.899Z,25.00
2022-12-29T22:43:14.231Z,25.20
2022-12-29T22:46:11.404Z,25.40
2022-12-29T22:49:05.294Z,25.50
2022-12-29T22:51:59.852Z,25.70
2022-12-29T22:54:54.179Z,25.80
2022-12-29T22:57:48.827Z,26.00
2022-12-29T23:00:43.211Z,26.10
2022-12-29T23:03:38.369Z,26.10
2022-12-29T23:06:33.049Z,26.00
2022-12-29T23:09:27.479Z,26.10
2022-12-29T23:12:21.961Z,26.20
2022-12-29T23:15:16.412Z,26.30
2022-12-29T23:18:10.924Z,26.40
2022-12-29T23:21:05.898Z,26.60
2022-12-29T23:24:05.464Z,26.60
2022-12-29T23:26:59.846Z,26.70
2022-12-29T23:29:54.293Z,26.80
2022-12-29T23:32:48.714Z,26.80
2022-12-29T23:35:43.043Z,26.90
2022-12-29T23:38:37.647Z,26.90
2022-12-29T23:41:32.118Z,27.00
2022-12-29T23:44:26.559Z,27.00
2022-12-29T23:47:20.810Z,27.10
2022-12-29T23:50:15.358Z,27.10
2022-12-29T23:53:11.323Z,27.30
2022-12-29T23:56:07.541Z,27.30
2022-12-29T23:59:04.093Z,27.20
